To NAV CANADA Home Page Login to a new session Search on AWWS site Disclaimer Vers la page française équivalente Tips FAQ What's new on the site To the Forecasts and Observations / NOTAM section To "File a Flight Plan" website Publications and other links Update of the User's profile FIC Telephone Numbers My Weather Data Folder Route Weather Data Regional Weather Data Local Weather Data To the Forecasts and Observations / NOTAM section
Request Generated 08/19/2022 at 02:37:05 UTC . Weather information available at that time is displayed.

METAR/TAF

FORT SEVERN/ON    (show WxCam)

SPECI CYER 190229Z AUTO 33009KT 3SM -RA BR OVC005 13/12 A2992 RMK SLP134=
SPECI CYER 190207Z AUTO 33008G15KT 5SM BR OVC007 13/13 A2992 RMK SLP133=
METAR CYER 190200Z AUTO 33009KT 9SM BKN005 OVC009 13/13 A2992 RMK SLP133=
SPECI CYER 190156Z AUTO 32005KT 7SM BKN005 OVC012 13/13 A2991 RMK SLP132=
SPECI CYER 190154Z AUTO 32008KT 6SM -RA BR OVC005 13/13 A2991 RMK SLP132=
SPECI CYER 190143Z AUTO 32010G15KT 290V360 3SM -RA BR OVC005 13/13 A2992 RMK SLP134=
SPECI CYER 190119Z AUTO 34006KT 300V010 5SM BR OVC007 13/13 A2992 RMK SLP134=
SPECI CYER 190107Z AUTO 33007KT 5SM BR OVC009 13/13 A2992 RMK SLP133=
METAR CYER 190100Z AUTO 33010G15KT 9SM OVC007 14/12 A2992 RMK SLP133=
METAR CYER 190000Z AUTO 33010G17KT 9SM OVC007 13/12 A2992 RMK SLP134=

*** REMARK        : Forecast period has ended; this was the last TAF issued
*** REMARQUE : La période de prévision est échue; ceci était le dernier TAF qui a été émis
TAF CYER 181440Z 1815/1819 30007KT P6SM SCT240
BECMG 1815/1817 03012KT
FM181700 03012KT P6SM SCT060 PROB30 1817/1819 2SM TSRA BR BKN020
BKN060CB
RMK FCST BASED ON AUTO OBS. NXT FCST BY 190900Z=
Your time UTC time
Weather data provided by Environment Canada and NAV CANADA